createdAt,value
2018-06-03T00:00:36.452Z,16.32
2018-06-03T00:03:02.581Z,16.22
2018-06-03T00:05:28.617Z,16.27
2018-06-03T00:07:54.684Z,16.24
2018-06-03T00:10:20.730Z,16.23
2018-06-03T00:12:46.745Z,16.17
2018-06-03T00:15:12.772Z,16.15
2018-06-03T00:17:38.779Z,16.16
2018-06-03T00:20:04.834Z,16.02
2018-06-03T00:22:30.902Z,15.98
2018-06-03T00:24:56.945Z,15.89
2018-06-03T00:27:22.994Z,15.87
2018-06-03T00:29:48.999Z,15.83
2018-06-03T00:32:15.017Z,15.80
2018-06-03T00:34:41.175Z,15.74
2018-06-03T00:37:07.559Z,15.70
2018-06-03T00:39:33.609Z,15.69
2018-06-03T00:41:59.640Z,15.69
2018-06-03T00:44:25.675Z,15.63
2018-06-03T00:46:52.316Z,15.68
2018-06-03T00:49:18.645Z,15.65
2018-06-03T00:51:44.867Z,15.60
2018-06-03T00:54:10.946Z,15.59
2018-06-03T00:56:49.190Z,15.55
2018-06-03T00:59:15.224Z,15.48
2018-06-03T01:01:41.253Z,15.46
2018-06-03T01:04:07.285Z,15.47
2018-06-03T01:06:33.308Z,15.36
2018-06-03T01:08:59.356Z,15.29
2018-06-03T01:11:25.434Z,15.26
2018-06-03T01:13:51.466Z,15.24
2018-06-03T01:16:17.526Z,15.25
2018-06-03T01:18:43.554Z,15.22
2018-06-03T01:21:09.797Z,15.14
2018-06-03T01:23:35.922Z,15.15
2018-06-03T01:26:01.932Z,15.07
2018-06-03T01:28:28.083Z,15.05
2018-06-03T01:30:54.190Z,14.98
2018-06-03T01:33:20.258Z,14.98
2018-06-03T01:35:46.334Z,14.96
2018-06-03T01:38:12.366Z,14.92
2018-06-03T01:40:38.455Z,14.91
2018-06-03T01:43:04.631Z,14.85
2018-06-03T01:45:31.049Z,14.83
2018-06-03T01:47:57.152Z,14.80
2018-06-03T01:50:23.171Z,14.80
2018-06-03T01:52:49.170Z,14.78
2018-06-03T01:55:15.227Z,14.74
2018-06-03T01:57:41.289Z,14.71
2018-06-03T02:00:07.297Z,14.69
2018-06-03T02:02:33.354Z,14.61
2018-06-03T02:04:59.701Z,14.63
2018-06-03T02:07:25.707Z,14.56
2018-06-03T02:09:52.085Z,14.55
2018-06-03T02:12:19.111Z,14.55
2018-06-03T02:14:45.112Z,14.54
2018-06-03T02:17:11.149Z,14.52
2018-06-03T02:19:37.176Z,14.53
2018-06-03T02:22:03.251Z,14.50
2018-06-03T02:24:29.270Z,14.50
2018-06-03T02:26:55.276Z,14.49
2018-06-03T02:29:21.273Z,14.49
2018-06-03T02:31:47.286Z,14.44
2018-06-03T02:34:13.293Z,14.44
2018-06-03T02:36:39.308Z,14.40
2018-06-03T02:39:05.380Z,14.42
2018-06-03T02:41:31.683Z,14.39
2018-06-03T02:43:57.713Z,14.35
2018-06-03T02:46:23.821Z,14.33
2018-06-03T02:48:49.826Z,14.32
2018-06-03T02:51:16.496Z,14.25
2018-06-03T02:53:42.525Z,14.23
2018-06-03T02:56:08.646Z,14.18
2018-06-03T02:58:34.651Z,14.20
2018-06-03T03:01:00.701Z,14.17
2018-06-03T03:03:26.722Z,14.16
2018-06-03T03:05:52.759Z,14.14
2018-06-03T03:08:18.789Z,14.11
2018-06-03T03:10:44.844Z,14.13
2018-06-03T03:13:44.883Z,13.73
2018-06-03T03:16:12.382Z,13.71
2018-06-03T03:18:39.854Z,13.78
2018-06-03T03:21:07.287Z,13.80
2018-06-03T03:23:35.102Z,13.94
2018-06-03T03:26:02.517Z,13.97
2018-06-03T03:28:30.161Z,14.04
2018-06-03T03:30:57.558Z,14.10
2018-06-03T03:33:25.380Z,14.13
2018-06-03T03:35:52.784Z,14.17
2018-06-03T03:38:20.606Z,14.23
2018-06-03T03:40:48.039Z,14.28
2018-06-03T03:43:15.820Z,14.33
2018-06-03T03:45:43.249Z,14.38
2018-06-03T03:48:10.626Z,14.44
2018-06-03T03:50:38.062Z,14.47
2018-06-03T03:53:05.454Z,14.57
2018-06-03T03:55:32.827Z,14.62
2018-06-03T03:58:00.605Z,14.66
2018-06-03T04:00:28.400Z,14.75
2018-06-03T04:02:55.809Z,14.76
2018-06-03T04:05:23.493Z,14.86
2018-06-03T04:07:50.941Z,14.90
2018-06-03T04:10:19.341Z,14.91
2018-06-03T04:12:46.718Z,14.90
2018-06-03T04:15:14.113Z,14.97
2018-06-03T04:17:41.711Z,14.97
2018-06-03T04:20:09.850Z,15.06
2018-06-03T04:22:37.266Z,15.10
2018-06-03T04:25:05.783Z,15.15
2018-06-03T04:27:33.232Z,15.08
2018-06-03T04:30:01.050Z,15.22
2018-06-03T04:32:28.483Z,15.24
2018-06-03T04:34:55.983Z,15.30
2018-06-03T04:37:23.349Z,15.40
2018-06-03T04:39:50.701Z,15.46
2018-06-03T04:42:18.393Z,15.47
2018-06-03T04:44:45.850Z,15.56
2018-06-03T04:47:13.394Z,15.60
2018-06-03T04:49:40.894Z,15.68
2018-06-03T04:52:08.422Z,15.72
2018-06-03T04:54:35.792Z,15.74
2018-06-03T04:57:03.161Z,15.76
2018-06-03T04:59:30.553Z,15.68
2018-06-03T05:01:58.018Z,15.87
2018-06-03T05:04:25.458Z,16.00
2018-06-03T05:06:52.976Z,16.05
2018-06-03T05:09:20.534Z,16.12
2018-06-03T05:11:47.982Z,16.21
2018-06-03T05:14:15.402Z,16.20
2018-06-03T05:16:43.691Z,16.19
2018-06-03T05:19:11.163Z,16.30
2018-06-03T05:21:38.550Z,16.44
2018-06-03T05:24:06.033Z,16.48
2018-06-03T05:26:33.478Z,16.58
2018-06-03T05:29:00.935Z,16.58
2018-06-03T05:31:28.731Z,16.72
2018-06-03T05:33:56.130Z,16.65
2018-06-03T05:36:23.767Z,16.83
2018-06-03T05:38:51.202Z,16.78
2018-06-03T05:41:18.613Z,16.87
2018-06-03T05:43:46.159Z,16.94
2018-06-03T05:46:14.538Z,17.05
2018-06-03T05:48:41.951Z,17.08
2018-06-03T05:51:09.583Z,17.14
2018-06-03T05:53:36.992Z,17.13
2018-06-03T05:56:04.629Z,17.21
2018-06-03T05:58:33.180Z,17.35
2018-06-03T06:01:00.587Z,17.45
2018-06-03T06:03:28.225Z,17.43
2018-06-03T06:05:55.922Z,17.49
2018-06-03T06:08:23.380Z,17.68
2018-06-03T06:10:52.112Z,17.86
2018-06-03T06:13:19.642Z,18.05
2018-06-03T06:15:47.888Z,17.93
2018-06-03T06:18:15.422Z,18.11
2018-06-03T06:20:43.012Z,17.87
2018-06-03T06:23:11.111Z,17.84
2018-06-03T06:25:38.505Z,18.01
2018-06-03T06:28:06.057Z,17.97
2018-06-03T06:30:33.533Z,17.94
2018-06-03T06:33:00.979Z,18.02
2018-06-03T06:35:28.540Z,18.02
2018-06-03T06:37:56.398Z,17.98
2018-06-03T06:40:23.791Z,18.00
2018-06-03T06:42:51.464Z,17.94
2018-06-03T06:45:19.066Z,18.00
2018-06-03T06:47:46.490Z,18.02
2018-06-03T06:50:13.903Z,18.03
2018-06-03T06:52:41.576Z,17.90
2018-06-03T06:55:09.072Z,17.97
2018-06-03T06:57:37.061Z,18.08
2018-06-03T07:00:04.968Z,18.33
2018-06-03T07:02:32.502Z,18.37
2018-06-03T07:05:00.117Z,18.44
2018-06-03T07:07:28.161Z,18.35
2018-06-03T07:09:55.661Z,18.25
2018-06-03T07:12:23.328Z,18.29
2018-06-03T07:14:50.786Z,18.37
2018-06-03T07:17:18.238Z,18.60
2018-06-03T07:19:45.783Z,18.73
2018-06-03T07:22:13.381Z,18.53
2018-06-03T07:24:40.932Z,18.62
2018-06-03T07:27:08.400Z,18.99
2018-06-03T07:29:35.845Z,19.24
2018-06-03T07:32:03.329Z,19.25
2018-06-03T07:34:30.890Z,19.30
2018-06-03T07:36:58.345Z,19.68
2018-06-03T07:39:26.090Z,19.69
2018-06-03T07:41:53.679Z,20.05
2018-06-03T07:44:21.191Z,19.89
2018-06-03T07:46:48.711Z,19.97
2018-06-03T07:49:16.108Z,20.12
2018-06-03T07:51:43.779Z,20.38
2018-06-03T07:54:11.197Z,20.85
2018-06-03T07:56:38.601Z,20.45
2018-06-03T07:59:06.203Z,20.45
2018-06-03T08:01:33.642Z,20.33
2018-06-03T08:04:01.065Z,20.16
2018-06-03T08:06:28.526Z,20.14
2018-06-03T08:08:56.172Z,21.02
2018-06-03T08:11:23.592Z,21.40
2018-06-03T08:13:51.328Z,21.67
2018-06-03T08:16:19.310Z,21.82
2018-06-03T08:18:46.959Z,21.13
2018-06-03T08:21:14.563Z,20.80
2018-06-03T08:23:41.966Z,20.70
2018-06-03T08:26:09.466Z,21.80
2018-06-03T08:28:36.885Z,22.28
2018-06-03T08:31:04.388Z,22.92
2018-06-03T08:33:31.853Z,22.91
2018-06-03T08:36:00.005Z,22.92
2018-06-03T08:38:27.628Z,23.00
2018-06-03T08:40:55.153Z,23.08
2018-06-03T08:43:22.630Z,23.12
2018-06-03T08:45:51.045Z,22.66
2018-06-03T08:48:18.450Z,22.95
2018-06-03T08:50:46.723Z,23.28
2018-06-03T08:53:14.163Z,23.24
2018-06-03T08:55:41.605Z,22.66
2018-06-03T08:58:09.056Z,22.66
2018-06-03T09:00:36.487Z,22.27
2018-06-03T09:03:03.893Z,22.38
2018-06-03T09:05:31.326Z,22.49
2018-06-03T09:07:58.882Z,22.29
2018-06-03T09:10:26.342Z,22.35
2018-06-03T09:12:53.804Z,22.25
2018-06-03T09:15:21.324Z,22.25
2018-06-03T09:17:48.789Z,22.46
2018-06-03T09:20:16.271Z,22.42
2018-06-03T09:22:43.823Z,22.43
2018-06-03T09:25:11.344Z,22.60
2018-06-03T09:27:38.769Z,22.56
2018-06-03T09:30:06.313Z,22.86
2018-06-03T09:32:33.846Z,23.22
2018-06-03T09:35:01.399Z,22.97
2018-06-03T09:37:28.936Z,23.17
2018-06-03T09:39:56.565Z,23.15
2018-06-03T09:42:24.156Z,23.35
2018-06-03T09:44:51.550Z,23.60
2018-06-03T09:47:19.242Z,23.72
2018-06-03T09:49:46.698Z,24.00
2018-06-03T09:52:14.076Z,24.16
2018-06-03T09:54:41.591Z,24.99
2018-06-03T09:57:08.996Z,24.88
2018-06-03T09:59:36.454Z,25.55
2018-06-03T10:02:04.034Z,26.18
2018-06-03T10:04:31.563Z,26.64
2018-06-03T10:06:59.031Z,26.34
2018-06-03T10:09:26.458Z,26.31
2018-06-03T10:11:54.062Z,25.43
2018-06-03T10:14:21.549Z,25.42
2018-06-03T10:16:49.051Z,26.01
2018-06-03T10:19:16.457Z,26.93
2018-06-03T10:21:44.028Z,27.69
2018-06-03T10:24:11.568Z,28.19
2018-06-03T10:26:38.971Z,28.29
2018-06-03T10:29:06.384Z,28.41
2018-06-03T10:31:33.978Z,26.92
2018-06-03T10:34:01.453Z,26.29
2018-06-03T10:36:30.427Z,26.93
2018-06-03T10:39:00.558Z,28.14
2018-06-03T10:41:28.174Z,28.29
2018-06-03T10:43:55.666Z,28.83
2018-06-03T10:46:23.131Z,29.18
2018-06-03T10:48:50.597Z,29.21
2018-06-03T10:51:18.128Z,29.63
2018-06-03T10:53:45.692Z,30.08
2018-06-03T10:56:13.204Z,28.87
2018-06-03T10:58:40.681Z,28.02
2018-06-03T11:01:08.343Z,27.22
2018-06-03T11:03:35.842Z,26.99
2018-06-03T11:06:04.023Z,28.89
2018-06-03T11:08:32.039Z,28.98
2018-06-03T11:10:59.570Z,27.86
2018-06-03T11:13:27.712Z,28.20
2018-06-03T11:15:55.130Z,29.32
2018-06-03T11:18:22.698Z,29.46
2018-06-03T11:20:50.334Z,28.11
2018-06-03T16:43:17.218Z,22.06
2018-06-03T16:45:44.612Z,22.13
2018-06-03T16:48:12.250Z,22.06
2018-06-03T16:50:40.897Z,22.13
2018-06-03T16:53:08.395Z,21.77
2018-06-03T16:55:35.841Z,21.76
2018-06-03T16:58:03.867Z,21.55
2018-06-03T17:00:31.428Z,21.63
2018-06-03T17:02:59.125Z,21.51
2018-06-03T17:05:26.599Z,21.45
2018-06-03T17:07:54.050Z,21.59
2018-06-03T17:10:21.531Z,21.49
2018-06-03T17:12:49.140Z,21.34
2018-06-03T17:15:16.633Z,21.29
2018-06-03T17:17:44.070Z,21.15
2018-06-03T17:20:11.518Z,21.01
2018-06-03T17:22:39.114Z,21.03
2018-06-03T17:25:06.579Z,20.73
2018-06-03T17:27:34.090Z,20.66
2018-06-03T17:30:01.545Z,20.54
2018-06-03T17:32:29.034Z,20.16
2018-06-03T17:34:56.590Z,20.51
2018-06-03T17:37:24.132Z,20.44
2018-06-03T17:39:51.684Z,20.37
2018-06-03T17:42:19.275Z,20.41
2018-06-03T17:44:46.720Z,20.29
2018-06-03T17:47:14.170Z,20.35
2018-06-03T17:49:41.605Z,20.26
2018-06-03T17:52:09.065Z,20.32
2018-06-03T17:54:36.528Z,20.16
2018-06-03T17:57:03.926Z,19.86
2018-06-03T17:59:31.329Z,19.79
2018-06-03T18:01:58.706Z,19.86
2018-06-03T18:04:26.125Z,19.86
2018-06-03T18:06:53.693Z,20.01
2018-06-03T18:09:21.292Z,19.75
2018-06-03T18:11:48.860Z,19.68
2018-06-03T18:14:16.294Z,19.59
2018-06-03T18:16:44.609Z,19.80
2018-06-03T18:19:12.101Z,19.77
2018-06-03T18:21:39.629Z,19.61
2018-06-03T18:24:07.165Z,19.42
2018-06-03T18:26:34.616Z,19.28
2018-06-03T18:29:01.995Z,19.22
2018-06-03T18:31:29.525Z,19.05
2018-06-03T18:33:56.903Z,19.04
2018-06-03T18:36:24.340Z,19.01
2018-06-03T18:38:51.781Z,19.05
2018-06-03T18:41:19.213Z,19.01
2018-06-03T18:43:46.628Z,18.90
2018-06-03T18:46:14.126Z,18.94
2018-06-03T18:48:41.752Z,19.00
2018-06-03T18:51:09.271Z,18.86
2018-06-03T18:53:36.698Z,18.72
2018-06-03T18:56:04.265Z,18.77
2018-06-03T18:58:31.744Z,18.70
2018-06-03T19:00:59.182Z,18.45
2018-06-03T19:03:26.625Z,18.39
2018-06-03T19:05:54.084Z,18.51
2018-06-03T19:08:21.607Z,18.48
2018-06-03T19:10:49.080Z,18.35
2018-06-03T19:13:17.256Z,18.26
2018-06-03T19:15:44.729Z,18.30
2018-06-03T19:18:12.224Z,18.18
2018-06-03T19:20:40.475Z,17.74
2018-06-03T19:23:08.106Z,17.78
2018-06-03T19:25:35.696Z,17.50
2018-06-03T19:28:03.942Z,17.37
2018-06-03T19:30:31.486Z,17.42
2018-06-03T19:32:58.978Z,17.12
2018-06-03T19:35:26.407Z,17.08
2018-06-03T19:37:53.839Z,17.05
2018-06-03T19:40:21.289Z,16.99
2018-06-03T19:42:48.702Z,16.99
2018-06-03T19:45:16.129Z,16.98
2018-06-03T19:47:44.278Z,16.79
2018-06-03T19:50:11.766Z,16.78
2018-06-03T19:52:39.159Z,16.70
2018-06-03T19:55:06.594Z,16.75
2018-06-03T19:57:34.106Z,16.62
2018-06-03T20:00:02.023Z,16.62
2018-06-03T20:02:29.435Z,16.61
2018-06-03T20:04:56.919Z,16.47
2018-06-03T20:07:24.504Z,16.46
2018-06-03T20:09:52.746Z,16.42
2018-06-03T20:12:20.158Z,16.26
2018-06-03T20:14:47.579Z,16.25
2018-06-03T20:17:14.984Z,16.28
2018-06-03T20:19:42.499Z,16.36
2018-06-03T20:22:09.967Z,16.07
2018-06-03T20:24:37.458Z,16.15
2018-06-03T20:27:04.890Z,16.16
2018-06-03T20:29:32.398Z,15.99
2018-06-03T20:32:00.488Z,15.94
2018-06-03T20:34:27.950Z,15.90
2018-06-03T20:36:55.431Z,15.88
2018-06-03T20:39:22.914Z,15.90
2018-06-03T20:41:50.442Z,15.88
2018-06-03T20:44:18.106Z,15.88
2018-06-03T20:46:45.568Z,15.79
2018-06-03T20:49:13.023Z,15.84
2018-06-03T20:51:40.491Z,15.71
2018-06-03T20:54:08.453Z,15.62
2018-06-03T20:56:36.629Z,15.55
2018-06-03T20:59:04.762Z,15.57
2018-06-03T21:01:32.212Z,15.59
2018-06-03T21:03:59.592Z,15.49
2018-06-03T21:06:27.044Z,15.38
2018-06-03T21:08:54.620Z,15.44
2018-06-03T21:11:22.187Z,15.42
2018-06-03T21:13:50.366Z,15.50
2018-06-03T21:16:17.792Z,15.43
2018-06-03T21:18:45.162Z,15.48
2018-06-03T21:21:12.802Z,15.43
2018-06-03T21:23:41.112Z,15.39
2018-06-03T21:26:08.533Z,15.47
2018-06-03T21:28:36.244Z,15.47
2018-06-03T21:31:03.670Z,15.39
2018-06-03T21:33:32.563Z,15.32
2018-06-03T21:35:59.978Z,15.26
2018-06-03T21:38:27.970Z,15.39
2018-06-03T21:40:56.070Z,15.38
2018-06-03T21:43:23.586Z,15.38
2018-06-03T21:45:51.123Z,15.31
2018-06-03T21:48:18.642Z,15.29
2018-06-03T21:50:46.088Z,15.25
2018-06-03T21:53:13.554Z,15.12
2018-06-03T21:55:40.958Z,15.16
2018-06-03T21:58:08.454Z,15.21
2018-06-03T22:00:36.223Z,15.12
2018-06-03T22:03:03.675Z,15.09
2018-06-03T22:05:31.083Z,15.09
2018-06-03T22:07:58.568Z,15.05
2018-06-03T22:10:26.141Z,15.18
2018-06-03T22:12:53.572Z,15.03
2018-06-03T22:15:20.960Z,15.08
2018-06-03T22:17:48.397Z,15.09
2018-06-03T22:20:16.576Z,15.06
2018-06-03T22:22:43.978Z,15.02
2018-06-03T22:25:11.381Z,14.98
2018-06-03T22:27:38.823Z,15.08
2018-06-03T22:30:06.357Z,15.19
2018-06-03T22:32:33.816Z,15.25
2018-06-03T22:35:01.914Z,15.24
2018-06-03T22:37:29.368Z,15.30
2018-06-03T22:39:56.717Z,15.28
2018-06-03T22:42:24.094Z,15.23
2018-06-03T22:44:51.523Z,15.22
2018-06-03T22:47:19.530Z,15.25
2018-06-03T22:49:47.046Z,15.23
2018-06-03T22:52:14.587Z,15.23
2018-06-03T22:54:41.942Z,15.15
2018-06-03T22:57:52.654Z,15.07
2018-06-03T23:00:27.828Z,15.05
2018-06-03T23:03:00.903Z,15.06
2018-06-03T23:05:28.350Z,15.08
2018-06-03T23:07:55.815Z,15.04
2018-06-03T23:10:23.261Z,15.01
2018-06-03T23:12:50.649Z,14.96
2018-06-03T23:15:18.026Z,15.01
2018-06-03T23:17:45.605Z,14.92
2018-06-03T23:20:13.019Z,14.79
2018-06-03T23:22:40.403Z,14.77
2018-06-03T23:25:07.815Z,14.76
2018-06-03T23:27:35.240Z,14.63
2018-06-03T23:30:02.768Z,14.69
2018-06-03T23:32:30.369Z,14.73
2018-06-03T23:34:57.744Z,14.76
2018-06-03T23:37:25.270Z,14.86
2018-06-03T23:39:52.632Z,14.71
2018-06-03T23:42:20.140Z,14.94
2018-06-03T23:44:47.609Z,14.98
2018-06-03T23:47:15.006Z,14.95
2018-06-03T23:49:42.377Z,15.10
2018-06-03T23:52:09.888Z,14.98
2018-06-03T23:54:37.379Z,15.03
2018-06-03T23:57:04.750Z,14.97
2018-06-03T23:59:32.259Z,15.00
